Time;durP1;ratioP1;P1;durP2;ratioP2;P2;SDS_P1;SDS_P2;PMS_P1;PMS_P2;Temp;Humidity;BMP_temperature;BMP_pressure;BME280_temperature;BME280_humidity;BME280_pressure;Samples;Min_cycle;Max_cycle;Signal;HPM_P1;HPM_P2
2022/08/11 00:00:05;;;;;;;5.22;3.75;;;14.10;99.90;;;14.99;100.00;100097.63;5101757;27;119672;-72
2022/08/11 00:02:39;;;;;;;7.18;4.00;;;14.00;99.90;;;14.92;100.00;100095.41;5100203;27;129911;-73
2022/08/11 00:05:12;;;;;;;7.40;4.05;;;13.90;99.90;;;14.88;100.00;100098.00;5101193;27;129708;-72
2022/08/11 00:07:47;;;;;;;5.28;4.22;;;13.90;99.90;;;14.86;100.00;100089.28;5069263;27;118398;-73
2022/08/11 00:10:20;;;;;;;6.77;3.93;;;13.90;99.90;;;14.83;100.00;100097.34;5101729;27;119570;-74
2022/08/11 00:12:55;;;;;;;6.00;3.90;;;13.80;99.90;;;14.76;100.00;100095.13;5101622;27;130394;-73
2022/08/11 00:15:25;;;;;;;7.35;4.10;;;13.80;99.90;;;14.72;100.00;100091.44;5101169;27;129557;-73
2022/08/11 00:18:00;;;;;;;5.28;4.07;;;13.80;99.90;;;14.68;100.00;100093.22;5069193;27;119268;-74
2022/08/11 00:20:32;;;;;;;6.15;4.65;;;13.70;99.90;;;14.64;100.00;100090.31;5101825;27;119704;-74
2022/08/11 00:23:06;;;;;;;8.38;4.20;;;13.60;99.90;;;14.56;100.00;100088.38;5101166;27;129972;-74
2022/08/11 00:25:41;;;;;;;6.93;4.05;;;13.60;99.90;;;14.51;100.00;100088.56;5100987;27;129362;-74
2022/08/11 00:28:27;;;;;;;6.70;4.57;;;13.60;99.90;;;14.43;100.00;100092.09;5100056;27;122024;-73
2022/08/11 00:30:58;;;;;;;7.95;4.80;;;13.50;99.90;;;14.40;100.00;100088.09;5101256;27;121971;-74
2022/08/11 00:33:37;;;;;;;7.32;4.43;;;13.50;99.90;;;14.35;100.00;100094.50;5100984;27;130364;-73
2022/08/11 00:36:08;;;;;;;7.05;4.65;;;13.50;99.90;;;14.29;100.00;100101.25;5100713;27;130857;-73
2022/08/11 00:38:40;;;;;;;7.20;4.53;;;13.40;99.90;;;14.28;100.00;100096.13;5101560;27;119606;-74
2022/08/11 00:41:31;;;;;;;7.28;4.38;;;13.40;99.90;;;14.23;100.00;100093.53;5101263;27;119889;-74
2022/08/11 00:44:34;;;;;;;6.57;4.60;;;13.30;99.90;;;14.18;100.00;100102.72;5100730;27;130221;-73
2022/08/11 00:47:22;;;;;;;6.22;4.20;;;13.30;99.90;;;14.18;100.00;100097.25;5085974;27;129275;-74
2022/08/11 00:50:07;;;;;;;6.47;4.78;;;13.30;99.90;;;14.18;100.00;100105.44;5086183;27;119200;-72
2022/08/11 00:53:13;;;;;;;7.85;5.18;;;13.20;99.90;;;14.15;100.00;100100.63;5104796;27;119709;-72
2022/08/11 00:56:59;;;;;;;7.82;5.07;;;13.20;99.90;;;14.13;100.00;100105.59;5103344;27;131206;-72
2022/08/11 01:00:03;;;;;;;7.18;5.20;;;13.20;99.90;;;14.09;100.00;100107.38;5022056;27;129341;-73
2022/08/11 01:03:19;;;;;;;6.05;4.72;;;13.10;99.90;;;14.01;100.00;100104.28;5104382;27;120031;-73
2022/08/11 01:06:21;;;;;;;8.15;5.30;;;13.10;99.90;;;13.88;100.00;100109.91;5104373;27;120604;-73
2022/08/11 01:09:21;;;;;;;7.30;5.05;;;13.10;99.90;;;13.75;100.00;100115.16;5104124;27;129905;-73
2022/08/11 01:12:40;;;;;;;7.78;4.88;;;13.00;99.90;;;13.72;100.00;100113.06;5104114;27;129514;-73
2022/08/11 01:16:13;;;;;;;7.88;4.97;;;13.00;99.90;;;13.61;100.00;100119.94;5104275;27;119654;-73
2022/08/11 01:19:29;;;;;;;9.18;4.82;;;12.80;99.90;;;13.57;100.00;100119.78;5104591;27;119147;-73
2022/08/11 01:23:07;;;;;;;7.10;5.35;;;12.80;99.90;;;13.50;100.00;100116.69;5103809;27;130434;-72
2022/08/11 01:26:39;;;;;;;8.20;4.97;;;12.70;99.90;;;13.45;100.00;100114.13;5082023;27;128633;-74
2022/08/11 01:30:05;;;;;;;7.32;5.32;;;12.70;99.90;;;13.41;100.00;100118.59;5087488;27;121322;-72
2022/08/11 01:33:42;;;;;;;7.82;5.00;;;12.70;99.90;;;13.30;100.00;100118.84;5088924;27;120959;-72
2022/08/11 01:37:00;;;;;;;7.82;4.82;;;12.60;99.90;;;13.25;100.00;100124.44;5065038;27;129867;-73
2022/08/11 01:40:38;;;;;;;9.75;5.00;;;12.50;99.90;;;13.24;100.00;100124.75;5103550;27;130550;-72
2022/08/11 01:46:50;;;;;;;8.15;5.72;;;12.60;99.90;;;13.26;100.00;100123.31;5088687;27;119539;-73
2022/08/11 01:49:34;;;;;;;6.05;5.00;;;12.50;99.90;;;13.26;100.00;100123.31;5103720;27;131002;-73
2022/08/11 01:52:19;;;;;;;6.85;5.32;;;12.50;99.90;;;13.26;100.00;100115.16;5103777;27;129595;-74
2022/08/11 01:54:59;;;;;;;7.22;5.70;;;12.50;99.90;;;13.26;100.00;100114.31;5103690;27;120499;-72
2022/08/11 01:57:38;;;;;;;7.82;5.68;;;12.50;99.90;;;13.25;100.00;100132.63;5088147;27;119036;-72
2022/08/11 02:00:13;;;;;;;8.68;5.35;;;12.50;99.90;;;13.22;100.00;100119.63;5102004;27;130715;-72
2022/08/11 02:02:53;;;;;;;8.73;5.78;;;12.40;99.90;;;13.15;100.00;100127.44;5103266;27;129462;-74
2022/08/11 02:05:47;;;;;;;6.95;5.38;;;12.40;99.90;;;13.06;100.00;100118.44;5104249;27;119571;-73
2022/08/11 02:08:34;;;;;;;7.20;5.57;;;12.30;99.90;;;13.05;100.00;100122.25;5104447;27;119870;-72
2022/08/11 02:11:30;;;;;;;7.47;5.15;;;12.30;99.90;;;13.02;100.00;100112.00;5086050;27;130570;-72
2022/08/11 02:14:19;;;;;;;9.73;5.70;;;12.30;99.90;;;13.01;100.00;100113.09;5087927;27;129697;-72
2022/08/11 02:17:11;;;;;;;8.50;6.10;;;12.40;99.90;;;13.02;100.00;100117.44;5103414;27;120194;-72
2022/08/11 02:25:50;;;;;;;7.65;5.65;;;12.30;99.90;;;13.02;100.00;100122.88;5102801;27;129528;-73
2022/08/11 02:28:27;;;;;;;7.20;5.53;;;12.30;99.90;;;13.00;100.00;100125.13;5102154;27;121536;-73
2022/08/11 02:34:11;;;;;;;7.88;5.53;;;12.40;99.90;;;12.97;100.00;100128.47;5102662;27;130445;-73
2022/08/11 02:36:49;;;;;;;9.35;5.53;;;12.40;99.90;;;12.99;100.00;100137.13;5102354;27;129591;-73
2022/08/11 02:39:24;;;;;;;6.80;5.47;;;12.30;99.90;;;13.02;100.00;100133.78;5103101;27;120286;-74
2022/08/11 02:42:23;;;;;;;9.63;5.82;;;12.30;99.90;;;12.99;100.00;100132.47;5087696;27;119035;-74
2022/08/11 02:45:16;;;;;;;7.40;5.60;;;12.30;99.90;;;12.92;100.00;100135.66;5102511;27;129978;-73
2022/08/11 02:51:06;;;;;;;7.82;5.15;;;12.20;99.90;;;12.94;100.00;100133.41;5102856;27;119470;-74
2022/08/11 02:53:45;;;;;;;7.38;5.60;;;12.20;99.90;;;13.00;100.00;100130.56;5102667;27;119275;-73
2022/08/11 02:56:27;;;;;;;7.35;5.13;;;12.20;99.90;;;13.04;100.00;100126.09;5085775;27;128890;-74
2022/08/11 03:01:58;;;;;;;9.48;5.45;;;12.20;99.90;;;13.11;100.00;100129.19;5102759;27;119616;-73
2022/08/11 03:04:37;;;;;;;8.35;5.40;;;12.20;99.90;;;13.11;100.00;100127.25;5087255;27;118404;-73
2022/08/11 03:07:19;;;;;;;7.13;5.00;;;12.30;99.90;;;13.17;100.00;100130.66;5102139;27;129987;-74
2022/08/11 03:09:58;;;;;;;6.65;5.03;;;12.30;99.90;;;13.20;100.00;100130.03;5086182;27;129340;-74
2022/08/11 03:18:28;;;;;;;7.93;4.87;;;12.40;99.90;;;13.36;100.00;100126.94;5083463;27;130566;-72
2022/08/11 03:21:07;;;;;;;8.07;5.05;;;12.40;99.90;;;13.51;100.00;100128.41;5101935;27;129688;-72
2022/08/11 03:23:44;;;;;;;6.30;4.50;;;12.50;99.90;;;13.65;100.00;100135.38;5100818;27;122053;-72
2022/08/11 03:26:26;;;;;;;6.82;4.18;;;12.70;99.90;;;13.69;100.00;100134.72;5102253;27;122419;-73
2022/08/11 03:29:08;;;;;;;7.38;4.80;;;12.70;99.90;;;13.73;100.00;100143.88;5086451;27;128785;-74
2022/08/11 03:31:49;;;;;;;8.18;4.88;;;12.70;99.90;;;13.82;100.00;100147.44;5101342;27;129835;-72
2022/08/11 03:34:21;;;;;;;6.35;4.50;;;12.80;99.90;;;13.83;100.00;100152.56;5087023;27;118480;-72
2022/08/11 03:37:47;;;;;;;7.05;4.43;;;12.70;99.90;;;13.95;100.00;100149.22;5102017;27;120190;-74
2022/08/11 03:43:43;;;;;;;8.32;4.10;;;13.00;99.90;;;14.18;100.00;100143.66;5086853;27;128507;-74
2022/08/11 03:46:16;;;;;;;6.57;4.10;;;13.10;99.90;;;14.33;100.00;100143.16;5101861;27;119642;-73
2022/08/11 03:48:59;;;;;;;8.57;4.90;;;13.10;99.90;;;14.41;100.00;100138.81;5101876;27;120102;-73
2022/08/11 03:51:38;;;;;;;6.15;4.13;;;13.20;99.90;;;14.52;100.00;100136.56;5066152;27;129402;-73
2022/08/11 03:54:22;;;;;;;17.60;4.15;;;13.30;99.90;;;14.66;100.00;100140.00;5064039;27;128729;-74
2022/08/11 03:57:47;;;;;;;7.93;3.72;;;13.50;99.90;;;14.81;100.00;100143.34;5080063;27;120067;-73
2022/08/11 04:00:47;;;;;;;6.70;3.60;;;13.60;99.90;;;14.93;100.00;100143.47;5041970;27;119302;-73
2022/08/11 04:04:25;;;;;;;5.63;2.90;;;13.80;99.90;;;14.87;100.00;100139.31;5044968;27;129689;-73
2022/08/11 04:10:37;;;;;;;6.70;3.00;;;14.10;99.90;;;15.04;100.00;100143.94;5105960;27;103122;-74
2022/08/11 04:17:25;;;;;;;4.57;2.53;;;14.80;99.90;;;15.37;100.00;100149.59;5077927;27;128782;-73
2022/08/11 04:20:29;;;;;;;4.15;2.42;;;14.80;99.90;;;15.39;100.00;100150.06;5078948;27;129534;-73
2022/08/11 04:23:23;;;;;;;7.18;3.00;;;14.90;99.90;;;15.50;100.00;100150.50;5079320;27;118690;-77
2022/08/11 04:26:34;;;;;;;4.38;2.60;;;15.00;99.90;;;15.60;100.00;100146.63;5078510;27;113545;-74
2022/08/11 04:29:25;;;;;;;4.75;2.50;;;15.10;99.90;;;15.78;100.00;100142.69;5054874;27;128934;-75
2022/08/11 04:32:21;;;;;;;6.90;2.35;;;15.30;99.90;;;15.91;100.00;100142.75;5078848;27;129585;-73
2022/08/11 04:35:19;;;;;;;4.00;2.83;;;15.40;99.90;;;16.04;100.00;100141.72;5080079;27;118296;-74
2022/08/11 04:38:31;;;;;;;5.32;2.92;;;15.40;99.90;;;16.03;100.00;100145.56;5078902;27;113524;-74
2022/08/11 04:45:28;;;;;;;5.25;2.50;;;15.70;99.90;;;16.35;100.00;100146.00;5078510;27;129768;-72
2022/08/11 05:01:41;;;;;;;3.75;1.90;;;16.30;99.90;;;16.88;97.64;100152.63;5079198;27;119079;-74
2022/08/11 05:08:49;;;;;;;6.07;1.92;;;16.60;99.90;;;17.48;95.26;100159.72;4994853;28;130215;-72
2022/08/11 05:11:48;;;;;;;4.40;2.15;;;16.70;99.90;;;17.78;92.41;100154.81;5078180;27;129358;-72
2022/08/11 05:35:44;;;;;;;4.00;1.90;;;17.60;92.90;;;18.56;86.75;100152.84;5064452;27;129337;-74
2022/08/11 05:58:00;;;;;;;5.45;2.03;;;18.40;63.70;;;19.50;81.71;100158.84;5063958;27;129929;-75
2022/08/11 06:00:30;;;;;;;3.70;1.83;;;18.50;59.40;;;19.73;81.07;100158.22;5064192;27;118734;-74
2022/08/11 06:03:06;;;;;;;7.13;2.30;;;18.70;59.40;;;19.92;79.60;100163.03;5064713;27;113839;-71
2022/08/11 06:05:36;;;;;;;3.33;1.77;;;19.00;41.90;;;20.04;78.53;100154.63;5063471;27;129891;-72
2022/08/11 06:08:07;;;;;;;3.08;1.80;;;19.10;36.40;;;20.19;77.82;100165.97;5062154;27;129590;-75
2022/08/11 06:10:39;;;;;;;6.85;1.77;;;19.20;28.00;;;20.32;77.58;100153.66;5063522;27;119343;-73
2022/08/11 06:13:09;;;;;;;4.57;2.08;;;19.30;27.80;;;20.60;75.12;100160.91;5063965;27;113663;-73
2022/08/11 06:15:46;;;;;;;6.00;1.90;;;19.40;15.30;;;20.58;74.32;100154.97;5063193;27;130237;-73
2022/08/11 06:18:16;;;;;;;4.47;1.90;;;19.40;12.10;;;20.57;75.11;100159.69;5063394;27;129733;-73
2022/08/11 06:20:49;;;;;;;4.95;1.70;;;19.50;14.40;;;20.54;73.96;100163.16;5063470;27;118663;-75
2022/08/11 06:23:22;;;;;;;3.90;1.75;;;19.50;4.20;;;20.71;73.19;100153.69;5063787;27;114325;-71
2022/08/11 06:25:53;;;;;;;4.55;1.50;;;19.70;1.00;;;20.48;74.21;100162.66;5063451;27;130095;-73
2022/08/11 06:28:32;;;;;;;3.42;1.50;;;19.60;1.30;;;20.78;74.07;100161.28;5063631;27;129038;-76
2022/08/11 06:31:02;;;;;;;4.03;1.65;;;19.80;2.90;;;20.87;71.73;100163.84;5062637;27;118945;-73
2022/08/11 06:33:42;;;;;;;3.33;1.85;;;19.90;1.00;;;20.75;71.78;100164.78;5063490;27;113604;-75
2022/08/11 06:36:17;;;;;;;4.63;1.60;;;19.90;1.00;;;20.98;71.43;100162.06;5063201;27;130476;-75
2022/08/11 06:39:06;;;;;;;2.88;1.45;;;20.10;1.00;;;21.25;70.38;100154.66;5062001;27;130103;-75
2022/08/11 06:41:40;;;;;;;3.88;1.70;;;20.40;1.00;;;21.52;68.79;100147.25;5065595;27;117588;-73
2022/08/11 06:44:28;;;;;;;3.70;1.58;;;20.60;1.00;;;21.35;68.57;100158.78;5061414;27;113166;-75
2022/08/11 06:47:04;;;;;;;3.08;1.50;;;20.40;1.00;;;21.40;68.66;100155.69;5063154;27;130096;-74
2022/08/11 06:52:33;;;;;;;5.18;1.73;;;20.80;1.00;;;21.86;66.14;100155.66;5061955;27;118747;-74
2022/08/11 06:55:10;;;;;;;2.45;1.40;;;20.80;1.00;;;21.94;65.60;100166.81;5063589;27;114239;-74
2022/08/11 07:00:42;;;;;;;4.60;1.48;;;21.00;1.00;;;22.11;63.16;100171.81;5028540;27;129583;-73
2022/08/11 07:03:16;;;;;;;3.88;1.55;;;21.10;1.00;;;21.92;62.87;100158.09;5063517;27;118775;-75
2022/08/11 07:05:54;;;;;;;3.35;1.42;;;20.90;1.00;;;21.82;64.52;100168.63;5063307;27;113592;-79
2022/08/11 07:15:44;;;;;;;7.00;1.60;;;21.30;1.00;;;22.54;62.83;100171.59;5042639;27;118713;-78
2022/08/11 07:29:53;;;;;;;2.60;1.10;;;22.30;1.00;;;23.53;55.65;100156.41;5063084;27;113602;-74
2022/08/11 07:32:30;;;;;;;3.70;1.20;;;22.30;1.00;;;23.39;56.25;100168.16;5062983;27;129947;-71
2022/08/11 07:35:08;;;;;;;1.80;1.17;;;22.20;1.00;;;22.92;56.16;100169.63;5065803;27;131147;-71
2022/08/11 07:37:41;;;;;;;2.50;1.33;;;22.00;1.00;;;22.89;57.24;100168.44;5061662;27;119378;-72
2022/08/11 07:40:11;;;;;;;2.90;1.38;;;21.90;1.00;;;23.16;55.86;100168.34;5062854;27;113678;-75
2022/08/11 07:42:45;;;;;;;3.10;1.50;;;22.20;1.00;;;23.12;55.43;100168.31;5061721;27;130476;-75
2022/08/11 07:53:40;;;;;;;2.00;1.20;;;22.10;1.00;;;23.05;55.55;100164.66;5061528;27;130680;-70
2022/08/11 07:56:09;;;;;;;2.90;1.23;;;22.10;1.00;;;23.14;55.20;100165.16;5064532;27;129961;-72
2022/08/11 08:18:14;;;;;;;;;;;22.60;1.00;;;23.61;53.27;100149.72;5065364;27;129435;-74
2022/08/11 08:20:50;;;;;;;2.40;1.45;;;22.70;1.00;;;23.72;51.09;100154.53;5064520;27;118727;-79
2022/08/11 08:23:32;;;;;;;5.32;1.75;;;22.80;1.00;;;24.05;52.06;100146.06;5062618;27;113770;-75
2022/08/11 08:26:57;;;;;;;2.67;1.30;;;23.00;1.00;;;24.37;51.54;100145.44;5081130;27;129593;-74
2022/08/11 08:30:46;;;;;;;3.05;1.50;;;23.40;1.00;;;24.22;50.70;100143.78;5064190;27;129888;-78
2022/08/11 08:31:47;;;;;;;5.15;1.60;;;23.20;1.00;;;24.64;50.30;100147.94;5063061;27;119084;-74
2022/08/11 08:34:16;;;;;;;3.08;1.63;;;23.70;1.00;;;24.45;50.25;100139.91;5062190;27;113784;-76
2022/08/11 08:36:47;;;;;;;1.85;1.30;;;23.20;1.00;;;24.48;50.70;100139.13;5061790;27;129895;-73
2022/08/11 08:39:20;;;;;;;2.78;1.50;;;23.20;1.00;;;24.65;50.59;100132.91;5061691;27;129716;-73
2022/08/11 08:41:59;;;;;;;2.72;1.42;;;23.40;1.00;;;24.65;50.49;100138.44;5062298;27;118921;-73
2022/08/11 08:44:29;;;;;;;2.50;1.33;;;23.40;1.00;;;24.73;48.67;100131.72;5062309;27;113512;-72
2022/08/11 08:47:00;;;;;;;2.10;0.93;;;23.50;1.00;;;24.36;50.68;100132.75;5060327;27;130021;-71
2022/08/11 08:49:41;;;;;;;3.00;1.38;;;23.30;1.00;;;24.38;50.54;100138.69;5062056;27;129481;-75
2022/08/11 08:52:12;;;;;;;2.83;1.25;;;23.30;1.00;;;24.36;50.47;100135.53;5061566;27;118951;-73
2022/08/11 08:54:44;;;;;;;3.95;1.67;;;23.20;1.00;;;24.38;50.77;100129.59;5062396;27;115165;-75
2022/08/11 08:57:18;;;;;;;2.90;1.30;;;23.10;1.00;;;24.41;50.63;100126.03;5064658;27;129861;-71
2022/08/11 08:59:49;;;;;;;2.13;1.23;;;23.20;1.00;;;24.57;49.45;100120.16;5064674;27;129914;-74
2022/08/11 09:02:24;;;;;;;3.55;1.63;;;23.40;1.00;;;24.98;49.55;100133.75;5064852;27;118945;-75
2022/08/11 09:04:54;;;;;;;3.57;1.50;;;23.90;1.00;;;25.22;48.99;100136.94;5065610;27;116377;-75
2022/08/11 09:07:25;;;;;;;4.13;1.40;;;24.00;1.00;;;24.88;48.68;100134.53;5064887;27;130469;-72
2022/08/11 09:09:57;;;;;;;2.65;1.40;;;23.70;1.00;;;24.40;48.87;100122.47;5066422;27;128484;-71
2022/08/11 09:12:31;;;;;;;2.80;1.30;;;23.30;1.00;;;24.57;49.21;100136.81;5065001;27;118793;-81
2022/08/11 09:15:02;;;;;;;2.92;1.50;;;23.60;1.00;;;24.75;47.91;100143.22;5065149;27;115070;-75
2022/08/11 09:17:39;;;;;;;5.28;2.10;;;23.60;1.00;;;25.02;47.48;100131.75;5070373;27;130903;-73
2022/08/11 09:20:12;;;;;;;2.67;1.30;;;23.70;1.00;;;25.52;47.89;100133.00;5067203;27;129512;-74
2022/08/11 09:28:29;;;;;;;1.80;1.10;;;24.30;1.00;;;24.95;46.98;100126.22;5041698;27;130373;-72
2022/08/11 09:31:01;;;;;;;2.50;1.50;;;23.50;1.00;;;24.73;47.76;100128.94;5065895;27;129861;-76
2022/08/11 09:33:31;;;;;;;5.07;1.80;;;23.40;1.00;;;25.17;47.84;100134.56;5064420;27;118252;-72
2022/08/11 09:40:27;;;;;;;2.50;1.50;;;23.90;1.00;;;25.06;48.38;100129.78;5064685;27;114951;-75
2022/08/11 09:41:45;;;;;;;6.00;1.40;;;23.90;1.00;;;25.97;44.68;100120.22;5063886;27;129445;-74
2022/08/11 09:47:14;;;;;;;3.88;1.80;;;24.70;1.00;;;25.47;47.03;100126.66;5064755;27;114875;-73
2022/08/11 09:49:45;;;;;;;2.97;1.48;;;24.10;1.00;;;24.68;48.68;100115.47;5063869;27;129839;-77
2022/08/11 09:52:16;;;;;;;4.35;1.60;;;23.40;1.00;;;24.69;47.78;100122.59;5063553;27;130141;-74
2022/08/11 09:54:48;;;;;;;2.30;1.50;;;23.40;1.00;;;24.95;46.36;100115.13;5063954;27;119424;-72
2022/08/11 10:00:13;;;;;;;3.30;1.40;;;23.90;1.00;;;25.33;46.13;100115.53;5063835;27;129732;-71
2022/08/11 10:02:47;;;;;;;;;;;24.10;1.00;;;25.26;46.31;100121.09;5064522;27;129522;-73
2022/08/11 10:08:18;;;;;;;3.47;1.98;;;23.70;1.00;;;25.07;46.85;100103.63;5064165;27;114759;-75
2022/08/11 10:10:49;;;;;;;4.55;1.60;;;23.90;1.00;;;25.19;46.16;100104.41;5063143;27;131011;-74
2022/08/11 10:13:25;;;;;;;3.53;1.50;;;24.10;1.00;;;25.82;44.01;100102.78;5063460;27;129925;-77
2022/08/11 10:16:01;;;;;;;;;;;24.50;1.00;;;26.51;42.77;100091.41;5064296;27;119037;-78
2022/08/11 10:18:48;;;;;;;7.18;2.08;;;25.20;1.00;;;26.70;43.00;100098.47;5064041;27;114680;-77
2022/08/11 10:21:28;;;;;;;3.13;1.67;;;25.20;1.00;;;26.29;44.67;100099.06;5062806;27;129893;-73
2022/08/11 10:26:54;;;;;;;3.70;1.60;;;24.40;1.00;;;26.43;44.39;100100.97;5063202;27;118941;-72
2022/08/11 10:35:01;;;;;;;2.40;1.25;;;24.50;1.00;;;26.26;43.44;100091.53;5062882;27;129398;-73
2022/08/11 10:37:33;;;;;;;2.97;1.35;;;24.80;1.00;;;26.10;44.76;100090.00;5063197;27;118814;-74
2022/08/11 10:40:02;;;;;;;2.58;1.60;;;24.60;1.00;;;26.13;43.94;100083.66;5063281;27;115484;-73
2022/08/11 10:48:38;;;;;;;3.30;1.52;;;24.60;1.00;;;26.18;43.60;100068.53;5039041;27;119461;-73
2022/08/11 10:51:14;;;;;;;3.83;2.00;;;24.70;1.00;;;26.30;42.36;100070.03;5062942;27;115665;-74
2022/08/11 10:59:29;;;;;;;3.63;1.77;;;24.90;1.00;;;25.65;43.49;100073.06;5062846;27;119495;-72
2022/08/11 11:01:59;;;;;;;;;;;24.40;1.00;;;25.72;43.14;100070.22;5063418;27;114941;-75
2022/08/11 11:05:02;;;;;;;6.57;1.77;;;24.60;1.00;;;25.91;43.43;100071.75;5062454;27;130087;-73
2022/08/11 11:07:47;;;;;;;3.83;1.88;;;24.80;1.00;;;25.78;43.86;100068.63;5047591;27;127876;-70
2022/08/11 11:10:16;;;;;;;3.73;1.93;;;24.50;1.00;;;25.14;45.02;100066.72;5064693;27;117548;-77
2022/08/11 11:18:34;;;;;;;4.63;1.50;;;24.60;1.00;;;25.63;43.52;100072.63;5060275;27;129085;-73
2022/08/11 11:21:09;;;;;;;3.55;1.40;;;24.50;1.00;;;26.09;43.36;100057.81;5062381;27;118798;-75
2022/08/11 11:23:46;;;;;;;2.63;1.58;;;24.90;1.00;;;25.70;42.98;100055.97;5062783;27;115068;-74
2022/08/11 11:26:41;;;;;;;5.78;1.52;;;24.60;1.00;;;26.23;43.45;100058.97;5062053;27;129711;-73
2022/08/11 11:29:44;;;;;;;3.97;1.35;;;24.90;1.00;;;26.27;41.84;100054.16;5060764;27;129862;-70
2022/08/11 11:32:37;;;;;;;2.45;1.38;;;25.00;1.00;;;26.37;42.09;100056.88;5064817;27;118887;-71
2022/08/11 11:35:26;;;;;;;4.35;1.40;;;25.10;1.00;;;26.46;41.31;100055.66;5062037;27;115124;-75
2022/08/11 11:37:58;;;;;;;3.22;1.50;;;25.20;1.00;;;26.70;41.59;100077.00;5060514;27;130162;-74
2022/08/11 11:40:36;;;;;;;4.95;1.52;;;25.50;1.00;;;25.96;42.83;100073.34;5061674;27;130100;-71
2022/08/11 11:43:08;;;;;;;4.43;1.50;;;24.80;1.00;;;25.64;42.12;100063.91;5061702;27;118801;-72
2022/08/11 11:45:36;;;;;;;2.33;1.40;;;24.30;1.00;;;26.09;42.08;100060.59;5062135;27;115639;-73
2022/08/11 11:48:06;;;;;;;2.75;1.73;;;24.60;1.00;;;27.11;40.40;100058.78;5061900;27;129900;-72
2022/08/11 11:50:39;;;;;;;2.10;1.40;;;25.40;1.00;;;27.80;39.79;100045.00;5061540;27;129389;-73
2022/08/11 11:53:12;;;;;;;3.20;1.52;;;26.10;1.00;;;27.93;39.07;100048.81;5062468;27;119008;-69
2022/08/11 11:55:42;;;;;;;3.08;1.40;;;26.10;1.00;;;27.82;39.14;100048.16;5062318;27;115098;-75
2022/08/11 12:01:18;;;;;;;3.38;1.88;;;26.00;1.00;;;26.64;40.63;100049.97;5061857;27;129341;-73
2022/08/11 12:03:50;;;;;;;2.35;1.27;;;25.20;1.00;;;27.02;38.60;100047.31;5062049;27;119151;-71
2022/08/11 12:06:22;;;;;;;2.90;1.40;;;25.40;1.00;;;27.50;38.98;100040.91;5062206;27;115263;-76
2022/08/11 12:08:56;;;;;;;2.92;1.35;;;25.80;1.00;;;27.17;40.08;100042.44;5062670;27;130253;-78
2022/08/11 12:14:24;;;;;;;2.95;1.50;;;25.70;1.00;;;27.23;39.95;100040.78;5061771;27;118696;-69
2022/08/11 12:16:56;;;;;;;2.83;1.73;;;25.70;1.00;;;26.50;40.95;100046.06;5061835;27;115453;-75
2022/08/11 12:19:28;;;;;;;4.05;1.58;;;25.10;1.00;;;25.84;41.06;100053.13;5060965;27;129731;-77
2022/08/11 12:27:39;;;;;;;1.85;1.20;;;25.50;1.00;;;27.13;39.60;100041.66;5061789;27;115286;-76
2022/08/11 12:30:13;;;;;;;2.78;1.55;;;25.70;1.00;;;27.16;39.79;100040.84;5062517;27;129829;-71
2022/08/11 12:32:44;;;;;;;2.70;1.48;;;25.70;1.00;;;27.52;39.58;100046.88;5064274;27;130264;-74
2022/08/11 12:35:17;;;;;;;5.63;1.55;;;26.00;1.00;;;27.46;40.16;100042.97;5065335;27;118719;-72
2022/08/11 12:37:49;;;;;;;2.72;1.40;;;26.00;1.00;;;26.51;41.24;100047.66;5065313;27;115720;-75
2022/08/11 12:46:08;;;;;;;4.07;1.60;;;25.00;1.00;;;26.99;41.66;100045.34;5065353;27;118982;-74
2022/08/11 12:54:28;;;;;;;4.43;1.58;;;25.70;1.00;;;26.65;41.52;100046.00;5064974;27;129456;-74
2022/08/11 13:05:27;;;;;;;2.35;1.30;;;24.90;1.00;;;25.65;44.26;100040.47;5063102;27;129406;-72
2022/08/11 13:08:02;;;;;;;4.25;1.85;;;24.80;1.00;;;25.75;44.82;100041.63;5064658;27;118829;-74
2022/08/11 13:13:21;;;;;;;8.00;2.08;;;24.80;1.00;;;25.47;44.09;100040.50;5064521;27;131527;-72
2022/08/11 13:15:50;;;;;;;5.13;2.75;;;24.40;1.00;;;25.50;44.59;100049.25;5064545;27;129836;-74
2022/08/11 13:18:41;;;;;;;2.97;1.85;;;24.40;1.00;;;25.33;44.55;100037.78;5064607;27;118972;-75
2022/08/11 13:21:12;;;;;;;3.05;1.80;;;24.30;1.00;;;26.15;44.21;100033.19;5064729;27;116054;-73
2022/08/11 13:23:42;;;;;;;3.95;1.58;;;24.90;1.00;;;26.37;42.90;100036.63;5064249;27;130161;-71
2022/08/11 13:26:12;;;;;;;5.20;1.80;;;25.10;1.00;;;26.42;43.29;100040.97;5064018;27;129408;-74
2022/08/11 13:28:43;;;;;;;3.00;1.40;;;25.20;1.00;;;26.67;42.76;100029.69;5064426;27;118664;-74
2022/08/11 13:31:13;;;;;;;2.70;1.50;;;25.40;1.00;;;27.06;42.01;100028.59;5049095;27;115294;-72
2022/08/11 13:33:45;;;;;;;6.00;1.80;;;25.70;1.00;;;27.18;41.31;100033.66;5063653;27;130046;-70
2022/08/11 13:36:18;;;;;;;4.70;1.48;;;25.80;1.00;;;27.06;40.74;100031.38;5063642;27;129593;-70
2022/08/11 13:38:48;;;;;;;3.22;1.60;;;25.70;1.00;;;27.39;40.98;100027.09;5066207;27;117822;-75
2022/08/11 13:44:11;;;;;;;5.60;1.60;;;26.40;1.00;;;28.75;38.89;100021.00;5063858;27;130768;-78
2022/08/11 13:46:41;;;;;;;3.10;1.67;;;26.80;1.00;;;28.93;37.68;100022.72;5066023;27;128215;-74
2022/08/11 13:49:12;;;;;;;3.88;1.90;;;26.80;1.00;;;28.43;38.18;100013.09;5066332;27;117920;-72
2022/08/11 13:51:41;;;;;;;3.90;1.80;;;26.40;1.00;;;27.93;39.32;100023.69;5064244;27;115091;-74
2022/08/11 13:54:16;;;;;;;4.55;1.60;;;26.30;1.00;;;27.61;39.35;100018.50;5063704;27;130935;-76
2022/08/11 13:56:48;;;;;;;3.92;1.75;;;26.00;1.00;;;27.32;39.40;100021.63;5063911;27;130458;-74
2022/08/11 13:59:21;;;;;;;4.88;1.75;;;25.80;1.00;;;27.32;40.07;100012.47;5063825;27;119118;-73
2022/08/11 14:01:59;;;;;;;4.53;1.60;;;25.80;1.00;;;27.79;39.37;100009.94;5064191;27;115150;-74
2022/08/11 14:04:34;;;;;;;4.68;1.65;;;26.20;1.00;;;28.01;39.18;100009.72;5063239;27;130052;-72
2022/08/11 14:07:07;;;;;;;4.13;1.52;;;26.40;1.00;;;27.56;40.24;100005.03;5082231;27;129760;-72
2022/08/11 14:09:41;;;;;;;2.50;1.40;;;25.90;1.00;;;27.54;40.05;100004.66;5066041;27;118991;-73
2022/08/11 14:15:18;;;;;;;4.15;1.77;;;25.80;1.00;;;27.41;40.58;100002.41;5065060;27;129790;-72
2022/08/11 14:17:53;;;;;;;3.45;1.50;;;26.10;1.00;;;27.22;39.59;100001.00;5063355;27;130882;-72
2022/08/11 14:20:22;;;;;;;1.83;1.17;;;25.80;1.00;;;26.86;40.19;99998.50;5063102;27;119119;-76
2022/08/11 14:22:52;;;;;;;6.45;1.42;;;25.40;1.00;;;26.40;41.77;100002.44;5065795;27;115550;-72
2022/08/11 14:25:20;;;;;;;3.05;1.50;;;25.00;1.00;;;26.71;41.86;99995.06;5063340;27;129974;-73
2022/08/11 14:27:50;;;;;;;4.15;1.60;;;25.20;1.00;;;27.20;41.16;100000.59;5063206;27;129604;-72
2022/08/11 14:33:05;;;;;;;;;;;25.70;1.00;;;26.59;40.97;99991.97;5055499;27;115547;-70
2022/08/11 14:35:33;;;;;;;2.85;1.50;;;25.30;1.00;;;26.62;40.55;100002.28;5063028;27;129874;-73
2022/08/11 14:38:02;;;;;;;3.25;1.33;;;25.40;1.00;;;26.93;40.45;99994.91;5063018;27;129793;-75
2022/08/11 14:48:50;;;;;;;2.60;1.25;;;29.50;1.00;;;34.03;28.55;99979.16;5062883;27;129215;-76
2022/08/11 14:51:22;;;;;;;2.45;1.23;;;29.30;1.00;;;34.39;27.22;99970.09;5064911;27;118447;-72
2022/08/11 14:56:34;;;;;;;4.50;1.65;;;29.10;1.00;;;35.23;26.92;99975.84;5062171;27;115416;-74
2022/08/11 14:56:39;;;;;;;2.45;1.30;;;28.90;1.00;;;33.88;28.61;99981.75;5062323;27;129781;-75
2022/08/11 14:59:09;;;;;;;2.97;1.10;;;28.00;1.00;;;34.91;27.57;99972.41;5062527;27;129214;-74
2022/08/11 15:04:23;;;;;;;2.65;1.10;;;29.10;1.00;;;36.15;25.42;99975.72;5031684;27;114968;-74
2022/08/11 15:06:52;;;;;;;2.35;1.20;;;28.90;1.00;;;35.89;25.17;99969.69;5062569;27;130424;-75
2022/08/11 15:09:21;;;;;;;3.83;1.25;;;28.00;1.00;;;36.21;24.59;99956.03;5062904;27;130039;-74